createdAt,value
2023-04-17T00:00:59.652Z,66.68
2023-04-17T00:03:27.561Z,66.74
2023-04-17T00:05:56.779Z,66.67
2023-04-17T00:08:24.598Z,66.52
2023-04-17T00:11:00.683Z,66.61
2023-04-17T00:13:32.229Z,66.49
2023-04-17T00:15:59.931Z,66.62
2023-04-17T00:18:27.662Z,66.70
2023-04-17T00:20:56.537Z,67.02
2023-04-17T00:23:24.287Z,66.69
2023-04-17T00:25:53.386Z,66.82
2023-04-17T00:28:21.089Z,66.62
2023-04-17T00:30:48.871Z,66.89
2023-04-17T00:33:16.750Z,66.74
2023-04-17T00:35:44.445Z,66.88
2023-04-17T00:38:12.150Z,66.78
2023-04-17T00:40:39.894Z,66.78
2023-04-17T00:43:08.959Z,66.88
2023-04-17T00:45:36.789Z,66.77
2023-04-17T00:48:05.591Z,66.85
2023-04-17T00:50:33.397Z,66.71
2023-04-17T00:53:01.717Z,66.60
2023-04-17T00:55:30.011Z,66.75
2023-04-17T00:57:58.164Z,66.62
2023-04-17T01:00:27.523Z,66.61
2023-04-17T01:02:57.808Z,66.60
2023-04-17T01:05:27.422Z,66.50
2023-04-17T01:07:55.763Z,66.70
2023-04-17T01:10:23.767Z,66.56
2023-04-17T01:13:02.521Z,66.50
2023-04-17T01:15:31.597Z,66.50
2023-04-17T01:17:59.672Z,66.55
2023-04-17T01:20:29.974Z,66.57
2023-04-17T01:22:57.851Z,66.50
2023-04-17T01:25:27.795Z,66.45
2023-04-17T01:27:56.112Z,66.56
2023-04-17T01:30:24.129Z,66.62
2023-04-17T01:32:51.984Z,66.58
2023-04-17T01:35:19.735Z,66.61
2023-04-17T01:37:47.436Z,66.55
2023-04-17T01:40:15.408Z,66.46
2023-04-17T01:42:44.563Z,66.63
2023-04-17T01:45:12.571Z,66.36
2023-04-17T01:47:40.679Z,66.42
2023-04-17T01:50:09.791Z,66.53
2023-04-17T01:52:37.518Z,66.42
2023-04-17T01:55:06.010Z,66.42
2023-04-17T01:57:34.361Z,66.29
2023-04-17T02:00:07.199Z,66.36
2023-04-17T02:02:35.044Z,66.50
2023-04-17T02:05:03.123Z,66.52
2023-04-17T02:07:30.763Z,66.43
2023-04-17T02:09:58.456Z,66.54
2023-04-17T02:12:26.146Z,66.44
2023-04-17T02:14:53.835Z,66.52
2023-04-17T02:17:22.999Z,66.56
2023-04-17T02:19:50.729Z,66.32
2023-04-17T02:22:18.571Z,66.43
2023-04-17T02:24:46.301Z,66.46
2023-04-17T02:27:14.037Z,66.46
2023-04-17T02:29:42.081Z,66.41
2023-04-17T02:32:09.809Z,66.20
2023-04-17T02:34:38.912Z,66.30
2023-04-17T02:37:06.690Z,66.16
2023-04-17T02:39:35.239Z,66.13
2023-04-17T02:42:03.210Z,66.35
2023-04-17T02:44:30.946Z,66.21
2023-04-17T02:46:58.711Z,66.30
2023-04-17T02:49:26.439Z,66.33
2023-04-17T02:51:55.576Z,66.40
2023-04-17T02:54:23.300Z,66.44
2023-04-17T02:56:51.241Z,66.59
2023-04-17T02:59:18.941Z,66.42
2023-04-17T03:01:46.678Z,66.38
2023-04-17T03:04:14.427Z,66.47
2023-04-17T03:06:42.200Z,66.32
2023-04-17T03:09:12.374Z,66.39
2023-04-17T03:11:40.322Z,66.18
2023-04-17T03:14:08.069Z,66.37
2023-04-17T03:16:35.808Z,66.21
2023-04-17T03:19:03.537Z,66.19
2023-04-17T03:21:31.444Z,66.24
2023-04-17T03:23:59.331Z,66.20
2023-04-17T03:26:28.432Z,66.25
2023-04-17T03:28:56.145Z,66.35
2023-04-17T03:31:25.706Z,66.42
2023-04-17T03:33:53.462Z,66.26
2023-04-17T03:36:21.291Z,66.37
2023-04-17T03:38:48.980Z,66.53
2023-04-17T03:41:16.678Z,66.55
2023-04-17T03:43:45.739Z,66.51
2023-04-17T03:46:13.542Z,66.47
2023-04-17T03:48:41.328Z,66.43
2023-04-17T03:51:09.130Z,66.47
2023-04-17T03:53:36.841Z,66.48
2023-04-17T03:56:04.877Z,66.50
2023-04-17T03:58:32.585Z,66.65
2023-04-17T04:01:02.065Z,66.59
2023-04-17T04:03:30.338Z,66.37
2023-04-17T04:05:58.255Z,66.35
2023-04-17T04:08:26.435Z,66.43
2023-04-17T04:10:54.225Z,66.59
2023-04-17T04:13:22.008Z,66.37
2023-04-17T04:15:49.904Z,66.50
2023-04-17T04:18:19.226Z,66.68
2023-04-17T04:20:46.955Z,66.57
2023-04-17T04:23:16.847Z,66.58
2023-04-17T04:25:44.631Z,66.66
2023-04-17T04:28:13.308Z,66.88
2023-04-17T04:30:41.045Z,66.73
2023-04-17T04:33:08.996Z,66.93
2023-04-17T04:35:38.609Z,66.76
2023-04-17T04:38:06.368Z,67.02
2023-04-17T04:40:36.144Z,66.98
2023-04-17T04:43:04.346Z,67.05
2023-04-17T04:45:32.088Z,66.99
2023-04-17T04:47:59.877Z,66.79
2023-04-17T04:50:27.591Z,66.81
2023-04-17T04:52:56.660Z,66.91
2023-04-17T04:55:24.577Z,67.08
2023-04-17T04:57:53.396Z,66.91
2023-04-17T05:00:21.466Z,66.96
2023-04-17T05:02:49.304Z,67.00
2023-04-17T05:05:17.061Z,66.98
2023-04-17T05:07:44.758Z,66.96
2023-04-17T05:10:13.809Z,67.10
2023-04-17T05:12:42.413Z,66.89
2023-04-17T05:15:11.289Z,66.90
2023-04-17T05:17:39.066Z,67.18
2023-04-17T05:20:09.235Z,66.97
2023-04-17T05:22:37.103Z,67.21
2023-04-17T05:25:05.425Z,67.15
2023-04-17T05:27:34.529Z,67.21
2023-04-17T05:30:02.314Z,67.02
2023-04-17T05:32:31.278Z,67.08
2023-04-17T05:34:59.122Z,67.07
2023-04-17T05:37:26.968Z,66.96
2023-04-17T05:39:54.690Z,66.97
2023-04-17T05:42:22.364Z,67.00
2023-04-17T05:44:51.941Z,66.88
2023-04-17T05:47:19.956Z,66.88
2023-04-17T05:49:48.717Z,66.71
2023-04-17T05:52:16.510Z,67.26
2023-04-17T05:54:44.234Z,67.46
2023-04-17T05:57:11.958Z,67.38
2023-04-17T05:59:39.840Z,67.59
2023-04-17T06:02:09.463Z,67.58
2023-04-17T06:04:37.626Z,67.60
2023-04-17T06:07:06.234Z,67.45
2023-04-17T06:09:33.995Z,67.78
2023-04-17T06:12:01.732Z,67.84
2023-04-17T06:14:29.450Z,67.61
2023-04-17T06:16:57.229Z,68.30
2023-04-17T06:19:26.326Z,68.32
2023-04-17T06:21:54.051Z,68.19
2023-04-17T06:24:21.823Z,68.20
2023-04-17T06:26:49.539Z,68.04
2023-04-17T06:29:17.231Z,68.06
2023-04-17T06:31:44.982Z,67.88
2023-04-17T06:34:12.673Z,67.79
2023-04-17T06:36:41.758Z,67.71
2023-04-17T06:39:09.739Z,68.01
2023-04-17T06:41:37.662Z,67.89
2023-04-17T06:44:05.612Z,67.59
2023-04-17T06:46:34.593Z,67.81
2023-04-17T06:49:02.767Z,67.90
2023-04-17T06:51:30.605Z,67.53
2023-04-17T06:54:00.240Z,67.65
2023-04-17T06:56:27.977Z,67.67
2023-04-17T06:58:57.903Z,67.77
2023-04-17T07:01:27.958Z,67.79
2023-04-17T07:03:55.969Z,67.62
2023-04-17T07:06:24.157Z,67.57
2023-04-17T07:08:53.478Z,67.53
2023-04-17T07:11:24.064Z,67.71
2023-04-17T07:13:51.789Z,67.58
2023-04-17T07:16:21.338Z,67.51
2023-04-17T07:18:49.137Z,67.76
2023-04-17T07:21:16.906Z,67.73
2023-04-17T07:23:44.655Z,67.58
2023-04-17T07:26:12.962Z,67.62
2023-04-17T07:28:42.194Z,67.59
2023-04-17T07:31:09.976Z,67.81
2023-04-17T07:33:40.376Z,67.65
2023-04-17T07:36:11.209Z,67.70
2023-04-17T07:38:40.961Z,67.67
2023-04-17T07:41:08.827Z,67.53
2023-04-17T07:43:36.666Z,67.41
2023-04-17T07:46:06.008Z,67.61
2023-04-17T07:48:33.795Z,67.34
2023-04-17T07:51:01.915Z,67.38
2023-04-17T07:53:29.836Z,67.35
2023-04-17T07:55:58.571Z,67.46
2023-04-17T07:58:27.159Z,67.20
2023-04-17T08:00:55.007Z,67.41
2023-04-17T08:03:24.594Z,67.50
2023-04-17T08:05:54.040Z,67.51
2023-04-17T08:08:23.689Z,67.71
2023-04-17T08:10:52.198Z,67.25
2023-04-17T08:13:20.075Z,67.03
2023-04-17T08:15:47.794Z,67.38
2023-04-17T08:18:15.587Z,66.92
2023-04-17T08:20:44.705Z,67.13
2023-04-17T08:23:12.509Z,66.99
2023-04-17T08:25:40.298Z,67.10
2023-04-17T08:28:08.007Z,66.84
2023-04-17T08:30:35.983Z,66.63
2023-04-17T08:33:03.806Z,66.97
2023-04-17T08:35:31.559Z,66.82
2023-04-17T08:38:00.721Z,66.82
2023-04-17T08:40:28.769Z,66.83
2023-04-17T08:42:56.499Z,66.64
2023-04-17T08:45:25.109Z,66.78
2023-04-17T08:47:53.095Z,66.74
2023-04-17T08:50:22.013Z,66.30
2023-04-17T08:52:52.621Z,66.09
2023-04-17T08:55:24.847Z,66.22
2023-04-17T08:58:00.832Z,65.95
2023-04-17T09:00:29.569Z,66.01
2023-04-17T09:02:59.200Z,66.09
2023-04-17T09:05:30.192Z,66.00
2023-04-17T09:08:11.373Z,66.18
2023-04-17T09:10:42.886Z,66.11
2023-04-17T09:13:12.213Z,66.14
2023-04-17T09:15:39.968Z,66.35
2023-04-17T09:18:22.359Z,66.31
2023-04-17T09:20:51.394Z,66.32
2023-04-17T09:23:19.891Z,66.33
2023-04-17T09:26:07.289Z,66.24
2023-04-17T09:28:36.833Z,66.31
2023-04-17T09:31:06.570Z,66.47
2023-04-17T09:33:34.344Z,66.39
2023-04-17T09:36:22.811Z,66.28
2023-04-17T09:38:51.584Z,66.37
2023-04-17T09:41:28.861Z,66.34
2023-04-17T09:44:01.100Z,66.34
2023-04-17T09:46:38.373Z,65.74
2023-04-17T09:49:15.590Z,65.43
2023-04-17T09:51:43.550Z,64.33
2023-04-17T09:54:12.349Z,63.77
2023-04-17T09:56:41.949Z,62.82
2023-04-17T09:59:10.066Z,62.06
2023-04-17T10:01:39.990Z,61.48
2023-04-17T10:04:08.037Z,61.01
2023-04-17T10:06:37.093Z,60.28
2023-04-17T10:09:05.766Z,59.68
2023-04-17T10:11:37.269Z,58.96
2023-04-17T10:14:11.792Z,59.10
2023-04-17T10:16:42.593Z,58.61
2023-04-17T10:19:27.788Z,58.53
2023-04-17T10:22:33.018Z,58.29
2023-04-17T10:25:19.454Z,58.36
2023-04-17T10:28:06.224Z,58.70
2023-04-17T10:30:55.489Z,58.54
2023-04-17T10:33:25.786Z,58.93
2023-04-17T10:35:54.254Z,59.68
2023-04-17T10:38:36.287Z,59.69
2023-04-17T10:41:05.854Z,60.58
2023-04-17T10:43:33.975Z,61.21
2023-04-17T10:46:09.993Z,61.67
2023-04-17T10:48:40.926Z,61.25
2023-04-17T10:51:43.599Z,61.84
2023-04-17T10:54:13.702Z,62.13
2023-04-17T10:56:43.016Z,62.18
2023-04-17T10:59:12.418Z,62.26
2023-04-17T11:01:58.119Z,62.52
2023-04-17T11:04:29.083Z,62.52
2023-04-17T11:06:57.158Z,62.72
2023-04-17T11:09:26.612Z,62.73
2023-04-17T11:11:54.797Z,63.15
2023-04-17T11:14:24.162Z,62.94
2023-04-17T11:16:53.570Z,62.92
2023-04-17T11:19:23.097Z,63.06
2023-04-17T11:21:53.631Z,63.16
2023-04-17T11:24:24.787Z,63.31
2023-04-17T11:26:52.618Z,63.03
2023-04-17T11:29:21.805Z,63.39
2023-04-17T11:31:51.931Z,62.99
2023-04-17T11:34:21.658Z,61.64
2023-04-17T11:36:52.848Z,61.65
2023-04-17T11:39:21.253Z,61.93
2023-04-17T11:41:51.786Z,62.48
2023-04-17T11:44:21.076Z,62.47
2023-04-17T11:46:50.434Z,62.18
2023-04-17T11:49:24.403Z,62.77
2023-04-17T11:51:53.570Z,62.55
2023-04-17T11:54:22.480Z,62.32
2023-04-17T11:56:59.578Z,61.83
2023-04-17T11:59:34.500Z,61.50
2023-04-17T12:02:03.220Z,61.61
2023-04-17T12:04:34.213Z,61.71
2023-04-17T12:07:04.496Z,61.57
2023-04-17T12:09:32.546Z,61.06
2023-04-17T12:12:01.656Z,60.34
2023-04-17T12:14:29.720Z,60.52
2023-04-17T12:16:57.535Z,60.85
2023-04-17T12:19:26.701Z,60.99
2023-04-17T12:21:55.142Z,60.52
2023-04-17T12:24:25.199Z,60.22
2023-04-17T12:26:53.731Z,60.77
2023-04-17T12:29:29.386Z,60.63
2023-04-17T12:32:04.787Z,59.85
2023-04-17T12:34:32.603Z,60.12
2023-04-17T12:37:00.360Z,59.46
2023-04-17T12:39:29.485Z,59.91
2023-04-17T12:41:57.261Z,59.20
2023-04-17T12:44:27.122Z,58.94
2023-04-17T12:46:54.832Z,59.19
2023-04-17T12:49:23.736Z,58.88
2023-04-17T12:51:51.693Z,59.04
2023-04-17T12:54:19.492Z,59.22
2023-04-17T12:56:48.824Z,59.59
2023-04-17T12:59:17.224Z,59.28
2023-04-17T13:01:44.968Z,58.84
2023-04-17T13:04:13.377Z,58.52
2023-04-17T13:06:41.570Z,57.10
2023-04-17T13:09:09.521Z,57.94
2023-04-17T13:11:37.235Z,57.49
2023-04-17T13:14:06.438Z,58.57
2023-04-17T13:16:34.234Z,57.49
2023-04-17T13:19:02.023Z,57.22
2023-04-17T13:21:29.686Z,57.89
2023-04-17T13:23:57.397Z,57.95
2023-04-17T13:26:25.193Z,56.33
2023-04-17T13:28:52.942Z,55.46
2023-04-17T13:31:24.562Z,55.74
2023-04-17T13:33:52.410Z,56.56
2023-04-17T13:36:20.217Z,56.20
2023-04-17T13:38:47.950Z,56.97
2023-04-17T13:41:15.789Z,57.59
2023-04-17T13:43:43.550Z,57.60
2023-04-17T13:46:15.872Z,56.51
2023-04-17T13:48:45.059Z,53.79
2023-04-17T13:51:12.873Z,54.01
2023-04-17T13:53:40.666Z,54.78
2023-04-17T13:56:08.622Z,54.89
2023-04-17T13:58:36.405Z,55.21
2023-04-17T14:01:04.110Z,55.05
2023-04-17T14:03:31.870Z,55.39
2023-04-17T14:06:01.128Z,53.59
2023-04-17T14:08:28.846Z,52.69
2023-04-17T14:10:56.559Z,51.24
2023-04-17T14:13:24.258Z,51.98
2023-04-17T14:15:53.623Z,52.38
2023-04-17T14:18:21.673Z,53.83
2023-04-17T14:20:49.426Z,55.15
2023-04-17T14:23:18.818Z,55.04
2023-04-17T14:25:46.636Z,55.53
2023-04-17T14:28:14.707Z,55.30
2023-04-17T14:30:42.434Z,53.69
2023-04-17T14:33:10.178Z,52.66
2023-04-17T14:35:40.077Z,51.17
2023-04-17T14:38:07.916Z,50.09
2023-04-17T14:40:36.971Z,49.29
2023-04-17T14:43:04.698Z,50.18
2023-04-17T14:45:32.470Z,51.32
2023-04-17T14:48:00.272Z,52.19
2023-04-17T14:50:28.068Z,51.18
2023-04-17T14:52:56.658Z,51.85
2023-04-17T14:55:24.534Z,51.20
2023-04-17T14:57:53.787Z,50.97
2023-04-17T15:00:21.788Z,49.40
2023-04-17T15:02:50.071Z,49.35
2023-04-17T15:05:19.997Z,49.84
2023-04-17T15:07:48.215Z,49.60
2023-04-17T15:10:16.304Z,49.17
2023-04-17T15:12:44.973Z,49.74
2023-04-17T15:15:14.407Z,49.95
2023-04-17T15:17:42.333Z,50.51
2023-04-17T15:20:10.775Z,50.37
2023-04-17T15:22:38.553Z,50.74
2023-04-17T15:25:07.095Z,51.35
2023-04-17T15:27:34.930Z,52.32
2023-04-17T15:30:04.866Z,52.88
2023-04-17T15:32:33.979Z,51.54
2023-04-17T15:35:01.694Z,50.99
2023-04-17T15:37:29.547Z,50.54
2023-04-17T15:39:57.315Z,50.47
2023-04-17T15:42:25.052Z,50.62
2023-04-17T15:44:53.141Z,51.29
2023-04-17T15:47:21.016Z,49.75
2023-04-17T15:49:50.055Z,49.96
2023-04-17T15:52:17.777Z,49.61
2023-04-17T15:54:45.539Z,49.77
2023-04-17T15:57:13.280Z,50.27
2023-04-17T15:59:41.055Z,49.22
2023-04-17T16:02:11.657Z,48.73
2023-04-17T16:04:40.170Z,50.29
2023-04-17T16:07:09.355Z,49.97
2023-04-17T16:09:37.103Z,50.20
2023-04-17T16:12:08.261Z,49.89
2023-04-17T16:14:36.564Z,48.94
2023-04-17T16:17:04.653Z,49.95
2023-04-17T16:19:32.576Z,49.45
2023-04-17T16:22:00.353Z,49.90
2023-04-17T16:24:29.677Z,50.08
2023-04-17T16:26:58.730Z,50.11
2023-04-17T16:29:26.678Z,50.94
2023-04-17T16:31:55.214Z,51.00
2023-04-17T16:34:23.348Z,50.03
2023-04-17T16:36:51.098Z,50.03
2023-04-17T16:39:18.833Z,50.01
2023-04-17T16:41:48.123Z,50.23
2023-04-17T16:44:16.317Z,50.49
2023-04-17T16:47:03.118Z,50.79
2023-04-17T16:49:31.755Z,50.92
2023-04-17T16:51:59.708Z,51.41
2023-04-17T16:54:27.494Z,50.97
2023-04-17T16:56:57.074Z,50.58
2023-04-17T16:59:24.897Z,49.13
2023-04-17T17:01:52.733Z,49.84
2023-04-17T17:04:20.560Z,50.63
2023-04-17T17:06:48.290Z,51.34
2023-04-17T17:09:16.038Z,51.70
2023-04-17T17:11:43.706Z,51.24
2023-04-17T17:14:12.823Z,51.17
2023-04-17T17:16:41.444Z,51.30
2023-04-17T17:19:09.295Z,51.09
2023-04-17T17:21:37.003Z,51.23
2023-04-17T17:24:05.161Z,50.60
2023-04-17T17:26:32.902Z,50.29
2023-04-17T17:29:00.627Z,51.03
2023-04-17T17:31:29.832Z,49.89
2023-04-17T17:34:11.849Z,49.80
2023-04-17T17:36:48.749Z,49.46
2023-04-17T17:39:16.632Z,49.16
2023-04-17T17:41:46.687Z,48.87
2023-04-17T17:44:15.410Z,49.12
2023-04-17T17:46:44.619Z,49.02
2023-04-17T17:49:12.365Z,49.07
2023-04-17T17:51:40.100Z,49.61
2023-04-17T17:54:07.903Z,49.29
2023-04-17T17:56:35.843Z,50.01
2023-04-17T17:59:03.566Z,49.55
2023-04-17T18:01:31.329Z,49.49
2023-04-17T18:04:00.576Z,48.01
2023-04-17T18:06:28.695Z,48.03
2023-04-17T18:08:57.901Z,46.45
2023-04-17T18:11:25.776Z,46.55
2023-04-17T18:13:53.570Z,46.32
2023-04-17T18:16:21.541Z,46.05
2023-04-17T18:18:49.343Z,45.57
2023-04-17T18:21:18.504Z,45.61
2023-04-17T18:23:46.282Z,45.52
2023-04-17T18:26:14.009Z,45.93
2023-04-17T18:28:42.505Z,46.49
2023-04-17T18:31:10.664Z,47.67
2023-04-17T18:33:38.469Z,47.26
2023-04-17T18:36:06.688Z,47.89
2023-04-17T18:38:36.259Z,47.30
2023-04-17T18:41:04.490Z,48.17
2023-04-17T18:43:32.270Z,47.58
2023-04-17T18:46:03.991Z,48.51
2023-04-17T18:48:32.092Z,48.65
2023-04-17T18:51:09.476Z,48.76
2023-04-17T18:53:38.702Z,48.71
2023-04-17T18:56:06.698Z,49.31
2023-04-17T18:58:34.469Z,49.30
2023-04-17T19:01:02.296Z,49.00
2023-04-17T19:03:30.071Z,49.12
2023-04-17T19:05:57.878Z,49.51
2023-04-17T19:08:25.651Z,49.42
2023-04-17T19:10:54.779Z,49.25
2023-04-17T19:13:22.539Z,49.58
2023-04-17T19:15:50.438Z,49.74
2023-04-17T19:18:18.349Z,49.93
2023-04-17T19:20:46.062Z,50.00
2023-04-17T19:23:13.822Z,50.41
2023-04-17T19:25:42.411Z,49.92
2023-04-17T19:28:13.326Z,50.25
2023-04-17T19:30:41.171Z,50.47
2023-04-17T19:33:09.392Z,50.61
2023-04-17T19:35:37.202Z,50.76
2023-04-17T19:38:04.971Z,51.11
2023-04-17T19:40:32.799Z,51.14
2023-04-17T19:43:02.266Z,51.33
2023-04-17T19:45:33.848Z,51.56
2023-04-17T19:48:02.068Z,51.31
2023-04-17T19:50:31.015Z,51.49
2023-04-17T19:52:59.300Z,51.49
2023-04-17T19:55:27.110Z,52.11
2023-04-17T19:57:56.970Z,52.10
2023-04-17T20:00:24.905Z,52.32
2023-04-17T20:02:54.133Z,51.95
2023-04-17T20:05:22.059Z,52.14
2023-04-17T20:07:49.822Z,52.39
2023-04-17T20:10:17.669Z,52.99
2023-04-17T20:12:45.525Z,52.93
2023-04-17T20:15:13.316Z,53.12
2023-04-17T20:17:41.155Z,53.34
2023-04-17T20:20:11.830Z,53.56
2023-04-17T20:22:40.223Z,54.36
2023-04-17T20:25:08.685Z,54.30
2023-04-17T20:27:36.426Z,54.42
2023-04-17T20:30:04.630Z,55.10
2023-04-17T20:32:32.574Z,54.83
2023-04-17T20:35:01.707Z,55.42
2023-04-17T20:37:30.910Z,55.83
2023-04-17T20:39:58.627Z,55.65
2023-04-17T20:42:26.424Z,55.91
2023-04-17T20:44:55.261Z,56.00
2023-04-17T20:47:22.983Z,56.16
2023-04-17T20:49:50.818Z,56.50
2023-04-17T20:52:18.579Z,56.19
2023-04-17T20:54:47.902Z,56.96
2023-04-17T20:57:15.625Z,56.73
2023-04-17T20:59:43.356Z,56.84
2023-04-17T21:02:11.310Z,56.67
2023-04-17T21:04:39.194Z,57.21
2023-04-17T21:07:06.941Z,56.80
2023-04-17T21:09:34.709Z,56.94
2023-04-17T21:12:03.809Z,57.27
2023-04-17T21:14:33.776Z,57.10
2023-04-17T21:17:01.720Z,57.35
2023-04-17T21:19:30.760Z,57.16
2023-04-17T21:21:58.899Z,56.90
2023-04-17T21:24:26.669Z,57.02
2023-04-17T21:26:58.407Z,56.86
2023-04-17T21:29:28.036Z,57.00
2023-04-17T21:31:56.496Z,56.57
2023-04-17T21:34:24.880Z,56.36
2023-04-17T21:36:53.821Z,56.03
2023-04-17T21:39:21.798Z,56.26
2023-04-17T21:41:49.656Z,55.69
2023-04-17T21:44:17.379Z,55.54
2023-04-17T21:46:46.840Z,55.79
2023-04-17T21:49:14.634Z,55.73
2023-04-17T21:51:42.407Z,55.15
2023-04-17T21:54:10.782Z,55.47
2023-04-17T21:56:38.751Z,54.96
2023-04-17T21:59:06.441Z,54.64
2023-04-17T22:01:34.258Z,55.08
2023-04-17T22:04:03.457Z,54.84
2023-04-17T22:06:31.198Z,54.93
2023-04-17T22:08:59.005Z,54.54
2023-04-17T22:11:26.749Z,54.98
2023-04-17T22:13:54.501Z,54.46
2023-04-17T22:16:22.350Z,54.30
2023-04-17T22:18:50.168Z,54.71
2023-04-17T22:21:19.256Z,54.66
2023-04-17T22:23:46.972Z,54.43
2023-04-17T22:26:14.714Z,54.24
2023-04-17T22:28:42.426Z,54.53
2023-04-17T22:31:11.533Z,54.59
2023-04-17T22:33:39.328Z,54.03
2023-04-17T22:36:07.232Z,54.37
2023-04-17T22:38:36.322Z,54.35
2023-04-17T22:41:04.397Z,54.32
2023-04-17T22:43:32.199Z,54.22
2023-04-17T22:46:00.026Z,54.28
2023-04-17T22:48:28.380Z,54.37
2023-04-17T22:50:56.756Z,54.35
2023-04-17T22:53:24.546Z,54.47
2023-04-17T22:56:02.637Z,53.87
2023-04-17T22:58:32.615Z,53.93
2023-04-17T23:01:00.643Z,54.14
2023-04-17T23:03:28.602Z,54.34
2023-04-17T23:05:56.953Z,54.23
2023-04-17T23:08:24.923Z,54.45
2023-04-17T23:10:59.075Z,54.24
2023-04-17T23:13:28.898Z,54.55
2023-04-17T23:15:56.711Z,54.38
2023-04-17T23:18:24.664Z,54.60
2023-04-17T23:20:52.476Z,54.59
2023-04-17T23:23:20.203Z,54.63
2023-04-17T23:25:47.961Z,54.40
2023-04-17T23:28:15.760Z,54.69
2023-04-17T23:30:44.922Z,54.85
2023-04-17T23:33:12.765Z,54.58
2023-04-17T23:35:40.545Z,54.94
2023-04-17T23:38:08.365Z,54.92
2023-04-17T23:40:36.442Z,54.70
2023-04-17T23:43:04.215Z,54.84
2023-04-17T23:45:31.962Z,55.04
2023-04-17T23:48:01.096Z,54.88
2023-04-17T23:50:29.090Z,54.78
2023-04-17T23:52:56.951Z,54.77
2023-04-17T23:55:26.526Z,55.12
2023-04-17T23:57:54.491Z,54.71
